createdAt,value
2023-04-18T00:00:43.961Z,101146.16
2023-04-18T00:03:10.635Z,101137.53
2023-04-18T00:05:37.990Z,101138.91
2023-04-18T00:08:05.448Z,101137.03
2023-04-18T00:10:34.654Z,101127.63
2023-04-18T00:13:01.102Z,101131.09
2023-04-18T00:15:29.285Z,101130.13
2023-04-18T00:17:58.569Z,101121.72
2023-04-18T00:20:28.124Z,101118.19
2023-04-18T00:22:57.062Z,101117.19
2023-04-18T00:25:23.574Z,101118.06
2023-04-18T00:27:50.094Z,101110.00
2023-04-18T00:30:16.573Z,101117.06
2023-04-18T00:32:57.511Z,101119.31
2023-04-18T00:35:26.498Z,101123.22
2023-04-18T00:38:05.611Z,101114.22
2023-04-18T00:40:35.053Z,101116.84
2023-04-18T00:43:02.089Z,101117.97
2023-04-18T00:45:28.525Z,101117.31
2023-04-18T00:47:56.316Z,101113.25
2023-04-18T00:50:26.314Z,101114.84
2023-04-18T00:52:53.780Z,101116.09
2023-04-18T00:55:20.591Z,101119.72
2023-04-18T00:57:47.035Z,101107.69
2023-04-18T01:00:16.246Z,101113.25
2023-04-18T01:02:45.627Z,101112.88
2023-04-18T01:05:12.282Z,101111.34
2023-04-18T01:07:41.582Z,101103.56
2023-04-18T01:10:10.164Z,101113.97
2023-04-18T01:12:38.925Z,101104.16
2023-04-18T01:15:06.164Z,101099.66
2023-04-18T01:17:34.532Z,101103.00
2023-04-18T01:20:02.048Z,101101.44
2023-04-18T01:22:31.655Z,101101.38
2023-04-18T01:24:58.685Z,101098.44
2023-04-18T01:27:25.200Z,101092.59
2023-04-18T01:29:53.933Z,101100.03
2023-04-18T01:32:20.720Z,101102.94
2023-04-18T01:34:47.601Z,101098.28
2023-04-18T01:37:14.068Z,101092.31
2023-04-18T01:39:40.719Z,101093.94
2023-04-18T01:42:07.205Z,101092.84
2023-04-18T01:44:33.740Z,101082.75
2023-04-18T01:47:00.259Z,101084.34
2023-04-18T01:49:26.662Z,101085.47
2023-04-18T01:51:53.025Z,101088.78
2023-04-18T01:54:22.085Z,101083.97
2023-04-18T01:56:48.534Z,101077.06
2023-04-18T01:59:15.034Z,101077.28
2023-04-18T02:01:41.562Z,101085.31
2023-04-18T02:04:08.179Z,101080.88
2023-04-18T02:06:37.016Z,101081.94
2023-04-18T02:09:03.758Z,101072.09
2023-04-18T02:11:32.431Z,101081.34
2023-04-18T02:13:59.654Z,101075.44
2023-04-18T02:16:26.431Z,101078.88
2023-04-18T02:18:52.882Z,101080.97
2023-04-18T02:21:19.278Z,101080.19
2023-04-18T02:23:45.702Z,101080.25
2023-04-18T02:26:12.097Z,101077.50
2023-04-18T02:28:40.866Z,101075.16
2023-04-18T02:31:47.633Z,101074.19
2023-04-18T02:34:14.485Z,101078.53
2023-04-18T02:36:45.909Z,101082.88
2023-04-18T02:39:12.361Z,101085.22
2023-04-18T02:41:39.441Z,101086.06
2023-04-18T02:44:07.008Z,101085.38
2023-04-18T02:46:33.436Z,101080.03
2023-04-18T02:48:59.959Z,101084.56
2023-04-18T02:51:26.741Z,101089.50
2023-04-18T02:53:55.353Z,101082.66
2023-04-18T02:56:24.115Z,101089.22
2023-04-18T02:58:50.535Z,101079.38
2023-04-18T03:01:17.844Z,101084.78
2023-04-18T03:03:44.342Z,101082.75
2023-04-18T03:06:10.811Z,101081.47
2023-04-18T03:08:37.248Z,101080.59
2023-04-18T03:11:06.054Z,101077.72
2023-04-18T03:13:32.939Z,101081.88
2023-04-18T03:15:59.369Z,101081.63
2023-04-18T03:18:26.032Z,101078.63
2023-04-18T03:20:52.516Z,101079.00
2023-04-18T03:23:19.122Z,101077.19
2023-04-18T03:25:45.688Z,101076.25
2023-04-18T03:28:12.071Z,101070.75
2023-04-18T03:30:38.622Z,101079.16
2023-04-18T03:33:05.200Z,101079.72
2023-04-18T03:35:31.745Z,101081.53
2023-04-18T03:37:58.265Z,101083.63
2023-04-18T03:40:24.990Z,101077.72
2023-04-18T03:42:51.495Z,101077.56
2023-04-18T03:45:17.850Z,101076.75
2023-04-18T03:47:44.223Z,101078.47
2023-04-18T03:50:10.754Z,101075.91
2023-04-18T03:52:39.469Z,101073.34
2023-04-18T03:55:06.589Z,101083.09
2023-04-18T03:57:33.064Z,101072.34
2023-04-18T03:59:59.613Z,101075.63
2023-04-18T04:02:26.317Z,101071.31
2023-04-18T04:04:52.860Z,101079.38
2023-04-18T04:07:24.248Z,101073.44
2023-04-18T04:09:50.744Z,101074.69
2023-04-18T04:12:17.368Z,101084.78
2023-04-18T04:14:43.759Z,101078.03
2023-04-18T04:17:10.314Z,101084.78
2023-04-18T04:19:36.808Z,101080.41
2023-04-18T04:22:03.308Z,101088.94
2023-04-18T04:24:29.681Z,101089.78
2023-04-18T04:26:56.349Z,101086.19
2023-04-18T04:29:23.874Z,101085.38
2023-04-18T04:31:52.518Z,101087.59
2023-04-18T04:34:19.069Z,101085.38
2023-04-18T04:36:45.452Z,101088.97
2023-04-18T04:39:12.759Z,101089.53
2023-04-18T04:41:39.443Z,101091.47
2023-04-18T04:44:09.665Z,101100.00
2023-04-18T04:46:39.389Z,101097.09
2023-04-18T04:49:06.138Z,101105.66
2023-04-18T04:51:32.662Z,101110.34
2023-04-18T04:54:01.771Z,101112.69
2023-04-18T04:56:28.172Z,101113.66
2023-04-18T04:58:56.025Z,101123.47
2023-04-18T05:01:25.077Z,101126.47
2023-04-18T05:03:52.549Z,101116.41
2023-04-18T05:06:21.120Z,101116.13
2023-04-18T05:08:48.250Z,101123.47
2023-04-18T05:11:15.165Z,101125.66
2023-04-18T05:13:41.680Z,101122.88
2023-04-18T05:16:10.950Z,101132.13
2023-04-18T05:18:39.298Z,101129.06
2023-04-18T05:21:08.032Z,101133.19
2023-04-18T05:23:37.699Z,101130.56
2023-04-18T05:26:05.327Z,101133.91
2023-04-18T05:28:34.358Z,101131.25
2023-04-18T05:31:03.599Z,101144.75
2023-04-18T05:33:31.215Z,101143.38
2023-04-18T05:36:00.657Z,101155.19
2023-04-18T05:38:29.471Z,101149.41
2023-04-18T05:40:55.968Z,101145.41
2023-04-18T05:43:25.014Z,101149.41
2023-04-18T05:45:56.544Z,101142.22
2023-04-18T05:48:29.122Z,101150.94
2023-04-18T05:50:55.757Z,101151.19
2023-04-18T05:53:22.177Z,101151.00
2023-04-18T05:55:48.806Z,101163.72
2023-04-18T05:58:15.578Z,101156.91
2023-04-18T06:00:42.782Z,101155.84
2023-04-18T06:03:12.018Z,101157.72
2023-04-18T06:05:40.869Z,101160.91
2023-04-18T06:08:08.131Z,101167.72
2023-04-18T06:10:39.091Z,101160.91
2023-04-18T06:13:05.766Z,101160.75
2023-04-18T06:15:34.619Z,101165.19
2023-04-18T06:18:01.190Z,101169.13
2023-04-18T06:20:27.606Z,101167.63
2023-04-18T06:22:56.296Z,101174.69
2023-04-18T06:25:22.794Z,101172.63
2023-04-18T06:27:51.879Z,101184.19
2023-04-18T06:30:21.808Z,101174.75
2023-04-18T06:32:48.359Z,101165.19
2023-04-18T06:35:15.576Z,101177.25
2023-04-18T06:37:44.927Z,101174.19
2023-04-18T06:40:12.026Z,101179.13
2023-04-18T06:42:38.790Z,101178.84
2023-04-18T06:45:06.459Z,101174.69
2023-04-18T06:47:35.300Z,101172.31
2023-04-18T06:50:04.505Z,101178.25
2023-04-18T06:52:31.015Z,101185.56
2023-04-18T06:54:57.525Z,101169.03
2023-04-18T06:57:24.016Z,101168.75
2023-04-18T06:59:50.396Z,101171.06
2023-04-18T07:02:16.993Z,101175.50
2023-04-18T07:04:46.624Z,101168.69
2023-04-18T07:07:13.089Z,101170.84
2023-04-18T07:09:39.618Z,101165.81
2023-04-18T07:12:06.202Z,101168.50
2023-04-18T07:14:35.386Z,101161.69
2023-04-18T07:17:02.271Z,101163.78
2023-04-18T07:19:28.703Z,101168.63
2023-04-18T07:21:55.913Z,101171.19
2023-04-18T07:24:24.945Z,101175.38
2023-04-18T07:26:54.385Z,101170.25
2023-04-18T07:29:21.512Z,101173.34
2023-04-18T07:31:48.090Z,101161.63
2023-04-18T07:34:15.378Z,101167.50
2023-04-18T07:36:42.193Z,101176.38
2023-04-18T07:39:08.961Z,101162.00
2023-04-18T07:41:35.630Z,101170.41
2023-04-18T07:44:02.428Z,101173.19
2023-04-18T07:46:36.364Z,101172.72
2023-04-18T07:49:03.489Z,101177.25
2023-04-18T07:51:33.152Z,101181.59
2023-04-18T07:54:02.334Z,101181.56
2023-04-18T07:56:28.771Z,101183.59
2023-04-18T07:58:55.662Z,101194.94
2023-04-18T08:01:24.312Z,101195.97
2023-04-18T08:03:51.784Z,101195.00
2023-04-18T08:06:18.350Z,101193.34
2023-04-18T08:08:44.819Z,101196.16
2023-04-18T08:11:13.867Z,101197.34
2023-04-18T08:13:40.245Z,101191.03
2023-04-18T08:16:06.922Z,101192.47
2023-04-18T08:18:33.362Z,101194.13
2023-04-18T08:20:59.861Z,101189.16
2023-04-18T08:23:26.461Z,101194.66
2023-04-18T08:25:52.884Z,101190.97
2023-04-18T08:28:19.484Z,101198.47
2023-04-18T08:30:49.141Z,101190.19
2023-04-18T08:33:16.149Z,101206.59
2023-04-18T08:35:43.031Z,101191.06
2023-04-18T08:38:09.806Z,101200.81
2023-04-18T08:40:37.486Z,101198.16
2023-04-18T08:43:09.439Z,101209.78
2023-04-18T08:45:36.831Z,101209.59
2023-04-18T08:48:07.611Z,101203.00
2023-04-18T08:50:34.263Z,101204.72
2023-04-18T08:53:03.769Z,101205.63
2023-04-18T08:55:30.392Z,101200.31
2023-04-18T08:57:57.778Z,101190.69
2023-04-18T09:00:24.275Z,101187.59
2023-04-18T09:02:55.198Z,101179.97
2023-04-18T09:05:22.765Z,101173.31
2023-04-18T09:07:51.611Z,101177.97
2023-04-18T09:10:33.422Z,101175.69
2023-04-18T09:13:02.968Z,101175.16
2023-04-18T09:15:30.086Z,101182.28
2023-04-18T09:17:58.513Z,101175.84
2023-04-18T09:20:44.519Z,101184.78
2023-04-18T09:23:16.102Z,101190.19
2023-04-18T09:25:46.404Z,101188.56
2023-04-18T09:28:29.510Z,101189.53
2023-04-18T09:31:07.983Z,101196.63
2023-04-18T09:33:34.552Z,101193.44
2023-04-18T09:36:18.613Z,101200.53
2023-04-18T09:38:45.360Z,101194.25
2023-04-18T09:41:15.858Z,101196.28
2023-04-18T09:43:45.303Z,101197.63
2023-04-18T09:46:12.942Z,101197.47
2023-04-18T09:48:40.291Z,101193.97
2023-04-18T09:51:11.334Z,101192.69
2023-04-18T09:53:44.511Z,101189.88
2023-04-18T09:56:32.606Z,101185.91
2023-04-18T09:59:08.222Z,101189.03
2023-04-18T10:01:35.286Z,101190.41
2023-04-18T10:04:04.123Z,101186.53
2023-04-18T10:06:39.618Z,101181.38
2023-04-18T10:09:09.268Z,101183.69
2023-04-18T10:11:36.506Z,101181.22
2023-04-18T10:14:07.730Z,101181.72
2023-04-18T10:16:36.316Z,101170.19
2023-04-18T10:19:26.675Z,101167.22
2023-04-18T10:21:54.746Z,101166.50
2023-04-18T10:24:49.832Z,101165.97
2023-04-18T10:27:17.588Z,101163.22
2023-04-18T10:29:53.585Z,101162.75
2023-04-18T10:32:23.027Z,101165.94
2023-04-18T10:34:50.466Z,101159.53
2023-04-18T10:37:19.177Z,101156.97
2023-04-18T10:39:50.387Z,101157.47
2023-04-18T10:42:17.148Z,101158.75
2023-04-18T10:44:43.694Z,101158.94
2023-04-18T10:47:13.037Z,101156.06
2023-04-18T10:49:39.547Z,101145.97
2023-04-18T10:52:06.762Z,101139.50
2023-04-18T10:54:49.725Z,101141.84
2023-04-18T10:57:16.365Z,101130.09
2023-04-18T10:59:48.679Z,101130.13
2023-04-18T11:02:24.183Z,101128.31
2023-04-18T11:04:58.001Z,101121.72
2023-04-18T11:07:37.696Z,101117.34
2023-04-18T11:10:05.809Z,101110.53
2023-04-18T11:12:36.287Z,101119.81
2023-04-18T11:15:09.143Z,101117.09
2023-04-18T11:17:40.066Z,101120.13
2023-04-18T11:20:15.112Z,101119.50
2023-04-18T11:22:53.104Z,101115.56
2023-04-18T11:25:23.680Z,101116.13
2023-04-18T11:27:53.038Z,101111.28
2023-04-18T11:30:19.606Z,101110.13
2023-04-18T11:32:48.901Z,101115.44
2023-04-18T11:35:16.366Z,101107.19
2023-04-18T11:37:45.769Z,101108.09
2023-04-18T11:40:16.362Z,101109.88
2023-04-18T11:42:42.844Z,101123.47
2023-04-18T11:45:13.699Z,101118.06
2023-04-18T11:47:44.953Z,101119.16
2023-04-18T11:50:12.622Z,101111.22
2023-04-18T11:52:42.566Z,101105.22
2023-04-18T11:55:25.252Z,101106.47
2023-04-18T11:57:56.434Z,101099.59
2023-04-18T12:00:41.906Z,101112.31
2023-04-18T12:03:16.153Z,101108.22
2023-04-18T12:05:43.169Z,101113.34
2023-04-18T12:08:09.825Z,101107.03
2023-04-18T12:10:36.360Z,101113.06
2023-04-18T12:13:08.078Z,101116.31
2023-04-18T12:15:39.331Z,101123.94
2023-04-18T12:18:08.450Z,101105.69
2023-04-18T12:20:46.590Z,101107.53
2023-04-18T12:23:36.064Z,101108.06
2023-04-18T12:26:04.550Z,101113.19
2023-04-18T12:28:31.967Z,101108.22
2023-04-18T12:30:59.012Z,101110.38
2023-04-18T12:33:28.682Z,101115.28
2023-04-18T12:35:55.987Z,101117.19
2023-04-18T12:38:23.926Z,101108.44
2023-04-18T12:40:51.784Z,101116.75
2023-04-18T12:43:18.778Z,101110.56
2023-04-18T12:45:46.358Z,101102.69
2023-04-18T12:48:15.398Z,101111.91
2023-04-18T12:50:41.953Z,101109.88
2023-04-18T12:53:08.471Z,101103.50
2023-04-18T12:55:35.058Z,101103.06
2023-04-18T12:58:01.582Z,101117.03
2023-04-18T13:00:33.417Z,101100.16
2023-04-18T13:03:02.854Z,101103.94
2023-04-18T13:05:32.833Z,101101.47
2023-04-18T13:08:12.694Z,101105.44
2023-04-18T13:10:42.233Z,101115.84
2023-04-18T13:13:08.666Z,101108.25
2023-04-18T13:15:35.140Z,101102.72
2023-04-18T13:18:06.521Z,101109.25
2023-04-18T13:20:34.098Z,101104.50
2023-04-18T13:23:02.711Z,101099.63
2023-04-18T13:25:29.370Z,101102.78
2023-04-18T13:27:57.357Z,101097.63
2023-04-18T13:30:23.986Z,101104.78
2023-04-18T13:32:50.703Z,101102.00
2023-04-18T13:35:17.219Z,101103.38
2023-04-18T13:37:46.254Z,101103.22
2023-04-18T13:40:17.716Z,101108.84
2023-04-18T13:42:44.236Z,101102.50
2023-04-18T13:45:10.977Z,101095.06
2023-04-18T13:47:37.641Z,101090.06
2023-04-18T13:50:05.574Z,101103.69
2023-04-18T13:52:31.982Z,101096.41
2023-04-18T13:54:58.346Z,101097.66
2023-04-18T13:57:24.864Z,101092.63
2023-04-18T13:59:51.488Z,101081.28
2023-04-18T14:02:18.026Z,101095.06
2023-04-18T14:04:46.981Z,101084.34
2023-04-18T14:07:16.533Z,101087.00
2023-04-18T14:09:42.900Z,101089.69
2023-04-18T14:12:09.394Z,101097.88
2023-04-18T14:14:36.122Z,101091.16
2023-04-18T14:17:05.384Z,101084.13
2023-04-18T14:19:31.895Z,101082.84
2023-04-18T14:22:00.777Z,101087.19
2023-04-18T14:24:31.791Z,101081.94
2023-04-18T14:26:58.370Z,101075.94
2023-04-18T14:29:24.812Z,101075.13
2023-04-18T14:31:51.248Z,101077.81
2023-04-18T14:34:17.782Z,101079.69
2023-04-18T14:36:44.199Z,101071.66
2023-04-18T14:39:10.997Z,101073.44
2023-04-18T14:41:37.870Z,101073.69
2023-04-18T14:44:04.634Z,101073.81
2023-04-18T14:46:33.670Z,101075.03
2023-04-18T14:49:00.931Z,101082.06
2023-04-18T14:51:32.338Z,101078.03
2023-04-18T14:53:58.876Z,101079.13
2023-04-18T14:56:27.651Z,101066.00
2023-04-18T14:58:54.139Z,101073.63
2023-04-18T15:01:23.233Z,101059.88
2023-04-18T15:03:50.841Z,101065.03
2023-04-18T15:06:17.430Z,101066.94
2023-04-18T15:08:47.134Z,101065.09
2023-04-18T15:11:13.644Z,101062.78
2023-04-18T15:13:40.869Z,101059.44
2023-04-18T15:16:07.773Z,101060.69
2023-04-18T15:18:34.304Z,101057.44
2023-04-18T15:21:00.783Z,101069.00
2023-04-18T15:23:27.539Z,101061.81
2023-04-18T15:25:54.135Z,101066.31
2023-04-18T15:28:20.617Z,101069.84
2023-04-18T15:30:47.412Z,101062.28
2023-04-18T15:33:17.901Z,101062.88
2023-04-18T15:35:45.158Z,101052.56
2023-04-18T15:38:11.925Z,101063.59
2023-04-18T15:40:38.369Z,101051.91
2023-04-18T15:43:05.298Z,101053.75
2023-04-18T15:45:31.949Z,101054.88
2023-04-18T15:47:58.818Z,101056.47
2023-04-18T15:50:25.788Z,101053.13
2023-04-18T15:52:52.642Z,101044.38
2023-04-18T15:55:19.817Z,101053.59
2023-04-18T15:57:46.525Z,101048.16
2023-04-18T16:00:17.318Z,101041.28
2023-04-18T16:02:45.479Z,101043.56
2023-04-18T16:05:13.259Z,101045.91
2023-04-18T16:07:41.423Z,101050.53
2023-04-18T16:10:10.699Z,101053.44
2023-04-18T16:12:39.063Z,101046.56
2023-04-18T16:15:07.327Z,101056.38
2023-04-18T16:17:35.660Z,101057.94
2023-04-18T16:20:02.504Z,101064.31
2023-04-18T16:22:29.327Z,101059.66
2023-04-18T16:24:56.116Z,101047.00
2023-04-18T16:27:25.693Z,101055.22
2023-04-18T16:29:53.855Z,101054.06
2023-04-18T16:32:20.965Z,101055.81
2023-04-18T16:34:48.392Z,101060.09
2023-04-18T16:37:15.113Z,101055.50
2023-04-18T16:39:41.937Z,101050.41
2023-04-18T16:42:08.522Z,101052.47
2023-04-18T16:44:39.253Z,101053.75
2023-04-18T16:47:08.291Z,101052.44
2023-04-18T16:49:34.949Z,101057.31
2023-04-18T16:52:01.761Z,101058.38
2023-04-18T16:54:28.413Z,101050.38
2023-04-18T16:56:54.958Z,101060.50
2023-04-18T16:59:23.484Z,101059.25
2023-04-18T17:01:52.502Z,101063.88
2023-04-18T17:04:19.004Z,101061.66
2023-04-18T17:06:46.510Z,101062.06
2023-04-18T17:09:19.719Z,101068.34
2023-04-18T17:11:48.708Z,101084.75
2023-04-18T17:14:16.526Z,101088.53
2023-04-18T17:16:43.130Z,101081.25
2023-04-18T17:19:10.401Z,101085.75
2023-04-18T17:21:37.536Z,101082.91
2023-04-18T17:24:06.632Z,101082.22
2023-04-18T17:26:34.762Z,101090.47
2023-04-18T17:29:02.836Z,101104.63
2023-04-18T17:31:29.892Z,101091.84
2023-04-18T17:33:57.786Z,101106.00
2023-04-18T17:36:24.691Z,101100.63
2023-04-18T17:38:51.101Z,101112.16
2023-04-18T17:41:19.247Z,101109.88
2023-04-18T17:43:46.573Z,101106.56
2023-04-18T17:46:13.948Z,101114.16
2023-04-18T17:48:41.022Z,101120.00
2023-04-18T17:51:10.072Z,101112.78
2023-04-18T17:53:36.610Z,101126.03
2023-04-18T17:56:05.348Z,101131.50
2023-04-18T17:58:31.901Z,101130.50
2023-04-18T18:00:58.522Z,101136.13
2023-04-18T18:03:25.555Z,101132.03
2023-04-18T18:05:54.780Z,101141.41
2023-04-18T18:08:22.063Z,101143.47
2023-04-18T18:10:48.577Z,101144.19
2023-04-18T18:13:15.677Z,101144.28
2023-04-18T18:15:44.674Z,101151.66
2023-04-18T18:18:11.375Z,101153.63
2023-04-18T18:20:37.767Z,101154.50
2023-04-18T18:23:06.777Z,101155.16
2023-04-18T18:25:37.056Z,101162.31
2023-04-18T18:28:07.186Z,101162.00
2023-04-18T18:30:34.093Z,101161.19
2023-04-18T18:33:03.510Z,101164.84
2023-04-18T18:35:30.061Z,101167.19
2023-04-18T18:37:56.422Z,101165.19
2023-04-18T18:40:23.064Z,101170.00
2023-04-18T18:42:56.333Z,101175.31
2023-04-18T18:45:27.407Z,101175.81
2023-04-18T18:47:53.986Z,101186.25
2023-04-18T18:50:20.573Z,101187.94
2023-04-18T18:52:46.948Z,101198.19
2023-04-18T18:55:13.393Z,101209.31
2023-04-18T18:57:39.866Z,101198.91
2023-04-18T19:00:11.115Z,101199.25
2023-04-18T19:02:38.759Z,101208.50
2023-04-18T19:05:06.315Z,101213.16
2023-04-18T19:07:32.669Z,101212.31
2023-04-18T19:10:01.509Z,101221.59
2023-04-18T19:12:28.271Z,101212.97
2023-04-18T19:14:54.700Z,101220.09
2023-04-18T19:17:24.649Z,101223.25
2023-04-18T19:19:57.881Z,101208.06
2023-04-18T19:22:24.943Z,101214.84
2023-04-18T19:24:53.637Z,101215.00
2023-04-18T19:27:20.014Z,101224.75
2023-04-18T19:29:46.475Z,101226.44
2023-04-18T19:32:15.546Z,101219.03
2023-04-18T19:34:42.286Z,101228.78
2023-04-18T19:37:08.643Z,101228.44
2023-04-18T19:39:35.035Z,101226.78
2023-04-18T19:42:03.895Z,101226.78
2023-04-18T19:44:31.128Z,101234.41
2023-04-18T19:46:57.653Z,101241.31
2023-04-18T19:49:24.045Z,101230.75
2023-04-18T19:51:52.555Z,101234.25
2023-04-18T19:54:28.539Z,101224.16
2023-04-18T19:56:54.915Z,101234.88
2023-04-18T19:59:21.361Z,101225.28
2023-04-18T20:01:48.045Z,101228.31
2023-04-18T20:04:14.853Z,101225.81
2023-04-18T20:06:44.565Z,101237.69
2023-04-18T20:09:16.729Z,101241.00
2023-04-18T20:11:43.568Z,101242.16
2023-04-18T20:14:10.500Z,101234.06
2023-04-18T20:16:36.985Z,101232.91
2023-04-18T20:19:05.842Z,101227.81
2023-04-18T20:21:32.271Z,101232.28
2023-04-18T20:23:59.403Z,101234.06
2023-04-18T20:26:25.954Z,101236.72
2023-04-18T20:28:52.552Z,101248.63
2023-04-18T20:31:19.106Z,101246.13
2023-04-18T20:33:45.845Z,101243.16
2023-04-18T20:36:14.119Z,101249.75
2023-04-18T20:38:40.576Z,101243.84
2023-04-18T20:41:10.627Z,101241.38
2023-04-18T20:43:37.276Z,101240.56
2023-04-18T20:46:03.835Z,101249.78
2023-04-18T20:48:30.229Z,101244.66
2023-04-18T20:50:56.748Z,101242.38
2023-04-18T20:53:27.006Z,101243.34
2023-04-18T20:56:00.876Z,101248.13
2023-04-18T20:58:27.477Z,101250.78
2023-04-18T21:00:53.918Z,101254.25
2023-04-18T21:03:20.561Z,101253.88
2023-04-18T21:05:47.383Z,101246.28
2023-04-18T21:08:16.553Z,101254.53
2023-04-18T21:10:43.025Z,101257.84
2023-04-18T21:13:11.571Z,101255.22
2023-04-18T21:15:38.178Z,101264.47
2023-04-18T21:18:04.802Z,101259.53
2023-04-18T21:20:31.500Z,101262.59
2023-04-18T21:22:57.914Z,101259.81
2023-04-18T21:25:24.391Z,101262.78
2023-04-18T21:27:50.969Z,101260.63
2023-04-18T21:30:20.013Z,101266.56
2023-04-18T21:32:47.297Z,101266.75
2023-04-18T21:35:13.782Z,101265.44
2023-04-18T21:37:40.305Z,101271.03
2023-04-18T21:40:07.385Z,101267.41
2023-04-18T21:42:35.519Z,101277.16
2023-04-18T21:45:04.363Z,101271.03
2023-04-18T21:47:32.164Z,101273.19
2023-04-18T21:50:02.752Z,101266.06
2023-04-18T21:52:29.120Z,101270.53
2023-04-18T21:54:59.207Z,101264.28
2023-04-18T21:57:25.629Z,101265.56
2023-04-18T21:59:52.088Z,101268.84
2023-04-18T22:02:20.969Z,101267.53
2023-04-18T22:04:48.018Z,101266.75
2023-04-18T22:07:20.594Z,101275.94
2023-04-18T22:09:47.240Z,101269.53
2023-04-18T22:12:16.254Z,101269.00
2023-04-18T22:14:48.192Z,101256.34
2023-04-18T22:17:14.831Z,101270.34
2023-04-18T22:19:41.540Z,101270.31
2023-04-18T22:22:07.914Z,101264.91
2023-04-18T22:24:34.269Z,101257.28
2023-04-18T22:27:01.363Z,101255.78
2023-04-18T22:29:27.704Z,101258.09
2023-04-18T22:31:54.093Z,101264.53
2023-04-18T22:34:20.712Z,101262.53
2023-04-18T22:36:47.484Z,101256.09
2023-04-18T22:39:13.942Z,101270.78
2023-04-18T22:41:40.441Z,101263.69
2023-04-18T22:44:06.893Z,101262.88
2023-04-18T22:46:38.483Z,101258.41
2023-04-18T22:49:07.351Z,101267.69
2023-04-18T22:51:34.148Z,101258.41
2023-04-18T22:54:00.712Z,101266.84
2023-04-18T22:56:27.250Z,101262.38
2023-04-18T22:58:53.772Z,101269.09
2023-04-18T23:01:20.222Z,101260.69
2023-04-18T23:03:46.930Z,101263.19
2023-04-18T23:06:13.439Z,101268.78
2023-04-18T23:08:39.853Z,101256.91
2023-04-18T23:11:06.236Z,101259.88
2023-04-18T23:13:32.645Z,101260.50
2023-04-18T23:15:59.109Z,101266.94
2023-04-18T23:18:30.841Z,101266.41
2023-04-18T23:20:57.246Z,101271.84
2023-04-18T23:23:23.667Z,101268.22
2023-04-18T23:25:50.267Z,101271.03
2023-04-18T23:28:17.119Z,101267.88
2023-04-18T23:30:43.789Z,101271.34
2023-04-18T23:33:10.544Z,101272.00
2023-04-18T23:35:37.053Z,101267.84
2023-04-18T23:38:03.480Z,101266.34
2023-04-18T23:40:29.907Z,101273.78
2023-04-18T23:42:56.262Z,101271.16
2023-04-18T23:45:24.259Z,101260.25
2023-04-18T23:47:53.298Z,101258.44
2023-04-18T23:50:20.196Z,101268.44
2023-04-18T23:52:46.731Z,101266.94
2023-04-18T23:55:13.250Z,101261.00
2023-04-18T23:57:39.687Z,101261.72
